Date,TemperatureHighF,TemperatureAvgF,TemperatureLowF,DewpointHighF,DewpointAvgF,DewpointLowF,HumidityHigh,HumidityAvg,HumidityLow,PressureMaxIn,PressureMinIn,WindSpeedMaxMPH,WindSpeedAvgMPH,GustSpeedMaxMPH,PrecipitationSumIn
2013-2-4,36,32,27,21,12,-100,56,47,35,29.93,29.87,6,-23,0,0.03
2013-2-5,49,39,32,35,28,22,98,66,44,29.92,29.84,9,2,0,0.00
2013-2-6,46,35,26,34,27,20,98,74,50,30.27,29.96,9,3,0,0.00
2013-2-7,42,36,24,36,27,20,87,69,58,30.32,30.00,5,2,0,0.00
2013-2-8,44,40,36,44,38,33,98,94,83,29.99,29.39,16,6,0,1.79
2013-2-9,40,34,29,32,21,18,84,60,44,30.24,29.66,18,10,0,0.01
2013-2-10,42,33,25,31,19,11,77,57,43,30.36,30.14,8,4,0,0.00
2013-2-11,59,52,38,57,49,32,98,88,76,30.13,29.50,12,6,0,0.25
2013-2-12,55,43,35,47,33,28,98,70,36,29.82,29.56,11,2,0,0.00
2013-2-13,49,40,35,39,34,28,98,81,66,29.82,29.46,10,3,0,0.68
2013-2-14,48,39,34,37,34,31,98,84,64,29.95,29.59,9,3,0,0.02
2013-2-15,62,45,34,43,35,31,91,70,41,29.94,29.80,8,4,0,0.00
2013-2-16,42,37,32,35,32,24,88,83,70,29.88,29.65,11,6,0,0.23
2013-2-17,38,30,26,24,14,6,69,50,34,30.05,29.66,16,9,0,0.00
2013-2-18,44,30,20,18,8,4,57,40,26,30.26,30.06,14,5,0,0.00
2013-2-19,54,44,32,49,35,20,98,71,52,30.13,29.60,10,5,0,0.16
2013-2-20,43,35,26,32,18,10,76,52,35,30.02,29.72,14,7,0,0.00
2013-2-21,40,31,22,21,14,10,64,50,37,30.20,29.98,16,7,0,0.00
2013-2-22,41,35,29,37,26,18,98,70,58,30.28,30.09,7,2,0,0.05
2013-2-23,50,42,38,50,42,37,98,98,89,30.11,29.64,6,2,0,0.20
2013-2-24,52,42,35,42,35,22,98,76,46,29.96,29.66,13,6,0,0.01
2013-2-25,48,37,28,31,25,21,82,63,43,30.13,29.97,10,3,0,0.00
2013-2-26,49,40,26,48,36,22,98,87,76,30.15,29.51,6,3,0,1.04
2013-2-27,62,52,41,52,44,36,98,78,47,29.61,29.39,9,4,0,0.00
2013-2-28,51,42,36,42,35,28,98,77,47,29.63,29.53,9,2,0,0.33
2013-3-1,46,39,33,35,31,28,84,73,57,29.78,29.62,8,3,0,0.00
2013-3-2,42,36,30,29,26,23,84,67,47,29.80,29.72,8,4,0,0.00
2013-3-3,41,34,27,24,21,17,81,59,43,29.80,29.71,12,6,0,0.00
2013-3-4,45,36,29,22,20,17,61,52,38,29.94,29.80,14,7,0,0.00
2013-3-5,48,37,28,33,25,19,78,62,47,30.02,29.81,8,3,0,0.00
2013-3-6,42,39,36,41,38,33,98,95,77,29.81,29.37,27,10,0,1.82
2013-3-7,46,41,35,36,32,30,98,72,59,30.04,29.81,14,7,0,0.05
2013-3-8,43,39,33,35,31,23,86,74,59,30.18,29.97,14,8,0,0.02
2013-3-9,55,43,34,34,30,24,77,61,31,30.28,30.17,10,4,0,0.00
2013-3-10,54,39,26,42,34,23,98,81,59,30.35,30.25,3,1,0,0.00
2013-3-11,64,47,35,51,44,35,98,90,63,30.26,29.97,9,3,0,0.00
2013-3-12,60,54,44,60,51,38,98,91,77,30.00,29.63,12,6,0,0.58
2013-3-13,57,43,33,38,32,26,85,65,34,29.93,29.78,11,4,0,0.02
2013-3-14,50,38,30,25,20,16,68,48,30,30.00,29.89,14,6,0,0.00
2013-3-15,57,42,24,32,22,16,74,49,22,30.02,29.71,16,4,0,0.00
2013-3-16,56,43,35,42,36,30,87,75,56,29.84,29.61,7,2,0,0.00
2013-3-17,42,39,37,35,29,24,86,68,54,30.22,29.84,7,4,0,0.00
2013-3-18,49,41,37,48,33,20,98,76,49,30.26,29.77,6,3,0,0.37
2013-3-19,54,46,37,49,42,33,98,86,60,29.81,29.64,11,3,0,0.14
2013-3-20,57,44,28,32,22,14,78,45,19,29.91,29.72,9,4,0,0.00
2013-3-21,41,36,29,32,24,14,98,64,47,29.80,29.60,11,6,0,0.07
2013-3-22,47,36,25,24,19,14,66,51,34,29.92,29.78,11,4,0,0.00
2013-3-23,54,39,26,33,23,18,76,54,32,29.95,29.81,11,4,0,0.00
2013-3-24,46,38,27,34,25,20,98,62,40,29.95,29.56,8,2,0,0.00
2013-3-25,39,36,34,38,36,32,98,98,88,29.61,29.32,10,5,0,1.21
2013-3-26,56,42,32,41,34,29,98,76,41,29.85,29.59,7,3,0,0.01
2013-3-27,58,44,34,33,30,27,84,62,34,29.99,29.86,11,4,0,0.00
2013-3-28,50,42,33,36,30,27,81,63,44,30.11,29.96,10,5,0,0.00
2013-3-29,56,44,33,37,31,27,78,61,36,30.15,30.04,7,2,0,0.00
2013-3-30,63,47,33,40,33,27,81,59,32,30.15,30.05,6,2,0,0.00
2013-3-31,56,49,40,53,43,34,98,81,53,30.09,29.66,12,4,0,0.14
2013-4-1,75,55,44,51,43,25,98,69,28,29.86,29.59,10,4,0,0.00
2013-4-2,56,44,30,27,20,14,65,40,23,30.08,29.87,13,5,0,0.00
2013-4-3,56,42,29,22,17,10,64,38,16,30.28,30.07,14,6,0,0.00
2013-4-4,53,41,27,33,23,17,83,49,33,30.36,30.07,10,4,0,0.08
2013-4-5,66,46,37,47,38,28,98,77,24,30.07,29.71,9,3,0,1.05
2013-4-6,55,45,36,36,28,22,77,53,28,30.28,29.91,8,4,0,0.00
2013-4-7,65,50,32,45,38,27,98,66,46,30.29,29.95,10,4,0,0.00
2013-4-8,83,65,55,56,50,43,77,60,35,30.01,29.91,8,4,0,0.00
2013-4-9,89,74,63,56,53,50,71,51,31,29.98,29.86,10,4,0,0.00
2013-4-10,93,78,66,58,55,50,69,48,28,29.87,29.70,9,5,0,0.00
2013-4-11,74,58,49,60,52,48,98,80,58,29.82,29.74,7,3,0,0.00
2013-4-12,78,59,49,69,57,48,98,93,69,29.79,29.50,14,4,0,0.23
2013-4-13,66,54,48,50,45,40,98,73,49,29.88,29.61,8,4,0,0.12
2013-4-14,66,54,41,52,44,38,98,70,43,30.10,29.88,7,2,0,0.00
2013-4-15,61,54,50,50,46,42,85,77,65,30.25,30.07,8,2,0,0.00
2013-4-16,75,62,50,59,53,46,98,74,56,30.27,30.07,12,4,0,0.00
2013-4-17,76,62,54,64,54,45,88,75,56,30.20,30.05,7,3,0,0.00
2013-4-18,71,60,54,60,55,46,98,83,66,30.21,29.99,7,3,0,0.00
2013-4-19,82,69,60,67,63,57,98,83,57,29.99,29.59,12,7,0,0.23
2013-4-20,66,56,50,65,42,31,98,65,34,30.24,29.64,11,6,0,0.75
2013-4-21,57,48,42,36,31,25,69,51,37,30.55,30.24,9,4,0,0.00
2013-4-22,54,48,41,44,40,30,85,74,63,30.53,30.31,9,5,0,0.00
2013-4-23,53,49,46,50,44,42,88,82,75,30.32,30.03,9,4,0,0.00
2013-4-24,74,58,42,59,50,38,98,79,58,30.07,29.78,11,5,0,0.00
2013-4-25,69,57,46,54,41,32,83,57,28,30.23,29.83,14,5,0,0.00
2013-4-26,70,55,41,50,42,36,98,65,31,30.36,30.23,6,2,0,0.00
2013-4-27,71,55,39,52,42,35,98,63,33,30.36,30.23,6,2,0,0.00
2013-4-28,74,56,40,53,41,29,98,61,29,30.24,30.12,5,2,0,0.02
2013-4-29,59,56,54,59,55,49,98,96,79,30.12,30.02,9,3,0,1.12
2013-4-30,57,54,52,56,53,49,98,95,86,30.19,30.03,7,3,0,0.42
2013-5-1,61,54,49,53,50,47,98,86,69,30.37,30.19,6,3,0,0.00
2013-5-2,67,56,46,54,49,42,98,80,49,30.36,30.26,5,2,0,0.00
2013-5-3,62,54,44,49,46,41,98,76,56,30.35,30.24,8,3,0,0.00
2013-5-4,69,55,48,52,46,42,88,74,51,30.27,30.15,6,3,0,0.00
2013-5-5,62,52,48,50,45,41,98,77,63,30.18,30.12,6,3,0,0.00
2013-5-6,58,54,50,54,52,49,98,95,84,30.11,30.00,8,4,0,0.00
2013-5-7,60,56,53,59,55,52,98,98,89,30.01,29.87,6,3,0,0.21
2013-5-8,79,63,54,64,57,54,98,82,56,29.94,29.85,8,2,0,0.03
2013-5-9,81,66,56,62,58,56,98,79,43,29.90,29.83,5,2,0,0.18
2013-5-10,84,71,58,64,60,56,98,70,48,29.94,29.79,9,3,0,0.00
2013-5-11,81,70,62,68,64,58,98,84,57,29.84,29.61,10,4,0,0.44
2013-5-12,73,63,48,62,50,32,98,67,27,29.92,29.61,11,4,0,0.11
2013-5-13,67,55,42,40,34,27,79,49,27,30.06,29.93,11,4,0,0.00
2013-5-14,68,55,40,45,38,32,83,54,29,30.12,30.01,6,3,0,0.00
2013-5-15,81,67,52,62,54,44,82,65,47,30.04,29.60,13,5,0,0.00
2013-5-16,87,76,68,67,62,57,79,63,43,29.76,29.62,7,3,0,0.00
2013-5-17,80,69,59,62,55,47,98,64,32,30.11,29.77,5,2,0,0.00
2013-5-18,75,64,58,60,56,50,98,77,57,30.21,30.11,6,2,0,0.19
2013-5-19,75,65,59,66,63,58,98,92,72,30.15,30.03,6,3,0,0.38
2013-5-20,88,75,65,72,68,65,98,80,55,30.06,29.87,7,4,0,0.00
2013-5-21,88,76,68,73,68,65,98,79,56,29.92,29.78,8,4,0,0.00
2013-5-22,86,76,70,72,69,66,98,80,58,29.85,29.76,9,6,0,0.00
2013-5-23,82,74,69,70,67,65,88,80,65,29.85,29.68,13,6,0,0.02
2013-5-24,70,61,52,69,56,42,98,84,65,29.98,29.63,19,7,0,0.21
2013-5-25,68,57,48,43,40,37,81,56,32,30.04,29.97,14,6,0,0.00
2013-5-26,78,61,45,45,40,36,79,50,23,30.13,30.03,8,3,0,0.00
2013-5-27,75,63,46,58,51,41,98,67,34,30.21,30.11,5,2,0,0.03
2013-5-28,81,68,60,68,60,53,93,75,61,30.16,30.03,11,4,0,0.09
2013-5-29,95,79,67,70,66,61,84,65,40,30.05,29.98,11,5,0,0.05
2013-5-30,97,82,71,72,67,64,79,62,39,30.10,30.00,7,4,0,0.00
2013-5-31,97,81,70,69,65,57,87,61,28,30.08,29.94,10,5,0,0.04
2013-6-1,95,82,71,71,67,64,87,64,36,29.98,29.84,12,6,0,0.00
2013-6-2,94,81,71,71,67,64,98,65,41,29.87,29.73,12,7,0,0.38
2013-6-3,77,72,68,75,71,67,98,96,86,29.80,29.69,11,2,0,2.36
2013-6-4,83,70,59,67,57,51,98,66,40,30.05,29.80,7,3,0,0.00
2013-6-5,83,67,54,62,57,51,98,72,45,30.12,30.04,4,2,0,0.03
2013-6-6,81,69,54,67,63,53,98,83,61,30.06,29.85,5,2,0,0.00
2013-6-7,75,70,66,75,69,65,98,98,98,29.85,29.41,7,3,0,1.59
2013-6-8,83,71,65,76,68,64,98,93,68,30.00,29.45,9,3,0,0.63
2013-6-9,86,73,62,81,70,62,98,92,66,30.13,30.01,5,2,0,0.00
2013-6-10,78,73,66,78,72,66,98,98,98,30.07,29.75,11,3,0,3.81
2013-6-11,87,77,70,85,75,70,98,94,64,29.75,29.63,16,4,0,0.12
2013-6-12,90,77,68,82,74,68,98,91,60,29.76,29.69,6,2,0,0.03
2013-6-13,92,74,66,87,72,65,98,93,49,29.74,29.34,12,4,0,0.78
2013-6-14,81,66,59,69,63,58,98,89,46,29.86,29.41,14,5,0,0.10
2013-6-15,86,72,58,74,64,58,98,79,46,29.98,29.86,5,2,0,0.00
2013-6-16,89,77,66,76,70,65,98,83,50,29.95,29.76,9,4,0,0.00
2013-6-17,87,78,71,86,75,70,98,93,71,29.87,29.78,7,3,0,0.14
2013-6-18,83,71,65,82,71,64,98,98,98,29.84,29.69,10,3,0,1.11
2013-6-19,82,70,59,73,66,58,98,89,48,30.09,29.77,8,3,0,0.01
2013-6-20,84,70,55,74,58,50,98,73,31,30.22,30.10,4,1,0,0.00
2013-6-21,85,68,55,78,64,55,98,88,43,30.24,30.18,4,1,0,0.00
2013-6-22,86,72,59,80,64,54,98,78,40,30.19,30.09,8,2,0,0.00
2013-6-23,88,77,64,86,75,64,98,95,78,30.13,29.97,11,3,0,0.05
2013-6-24,94,82,74,84,77,73,98,85,54,30.03,29.89,8,4,0,0.00
2013-6-25,96,84,72,83,75,71,98,79,48,29.96,29.80,9,4,0,0.00
2013-6-26,96,83,72,81,76,68,98,79,56,29.85,29.69,6,3,0,0.00
2013-6-27,92,80,72,80,76,72,98,88,63,29.73,29.51,11,4,0,0.30
2013-6-28,93,80,69,84,75,69,98,86,57,29.55,29.41,8,4,0,0.28
2013-6-29,90,78,69,84,74,68,98,90,53,29.63,29.43,8,4,0,0.06
2013-6-30,87,78,73,85,77,72,98,98,87,29.81,29.63,8,3,0,0.10
2013-7-1,81,76,73,80,76,72,98,98,98,29.97,29.81,10,4,0,0.73
2013-7-2,90,78,73,84,76,72,98,96,75,30.14,29.97,9,5,0,0.12
2013-7-3,90,80,72,88,78,71,98,96,83,30.19,30.12,8,4,0,0.08
2013-7-4,92,82,74,86,77,72,98,87,55,30.21,30.12,9,5,0,0.00
2013-7-5,93,83,74,84,76,74,98,83,57,30.18,30.07,10,5,0,0.00
2013-7-6,96,84,76,86,78,73,98,84,51,30.12,30.00,8,4,0,0.00
2013-7-7,95,84,75,84,78,74,98,83,59,30.04,29.91,9,5,0,0.00
2013-7-8,91,80,74,82,76,71,98,89,57,30.02,29.94,6,3,0,0.00
2013-7-9,92,82,74,84,78,73,98,89,60,30.03,29.94,10,4,0,0.01
2013-7-10,93,82,74,86,79,74,98,90,69,29.96,29.77,8,5,0,0.00
2013-7-11,82,77,73,81,76,72,98,98,98,29.84,29.77,9,3,0,0.34
2013-7-12,75,72,70,75,71,69,98,98,98,29.93,29.81,5,2,0,3.50
2013-7-13,91,79,68,90,76,67,98,94,75,30.23,29.93,9,2,0,0.00
2013-7-14,90,80,75,88,79,74,98,97,79,30.28,30.22,5,2,0,0.00
2013-7-15,99,83,73,90,78,72,98,87,44,30.24,30.09,4,2,0,0.00
2013-7-16,95,87,76,92,79,70,98,79,48,30.12,30.06,6,2,0,0.00
2013-7-17,97,85,73,91,78,70,98,85,43,30.11,30.02,4,2,0,0.00
2013-7-18,101,87,77,90,80,75,98,83,46,30.03,29.91,6,3,0,0.00
2013-7-19,98,87,78,94,82,76,98,86,51,29.94,29.79,11,5,0,0.00
2013-7-20,96,86,80,93,84,78,98,92,60,29.81,29.71,11,5,0,0.00
2013-7-21,96,81,72,92,80,71,98,97,69,29.86,29.80,6,2,0,0.27
2013-7-22,92,81,72,92,80,71,98,98,98,29.86,29.70,6,2,0,0.00
2013-7-23,94,82,75,92,80,73,98,94,55,29.70,29.53,7,3,0,0.02
2013-7-24,92,80,72,90,79,72,98,98,92,29.80,29.59,6,3,0,0.01
2013-7-25,73,71,68,73,70,67,98,98,98,29.94,29.79,8,4,0,0.04
2013-7-26,93,75,67,80,70,65,98,87,40,29.99,29.91,7,3,0,0.00
2013-7-27,92,76,66,83,70,64,98,85,44,29.99,29.86,6,3,0,0.00
2013-7-28,88,76,69,88,76,68,98,98,98,29.89,29.81,7,3,0,0.35
2013-7-29,90,75,66,85,74,61,98,95,48,30.07,29.86,7,2,0,0.00
2013-7-30,89,74,61,81,68,60,98,83,38,30.13,30.05,6,2,0,0.00
2013-7-31,89,75,64,85,73,64,98,93,56,30.09,29.95,6,2,0,0.00
2013-8-1,79,72,68,79,71,67,98,98,98,29.95,29.74,10,3,0,2.76
2013-8-2,90,78,67,86,73,66,98,88,53,29.88,29.73,6,3,0,0.00
2013-8-3,87,77,70,87,76,69,98,98,98,29.89,29.83,6,2,0,0.00
2013-8-4,87,75,64,82,69,62,98,84,46,29.93,29.80,7,3,0,0.00
2013-8-5,85,74,62,74,66,61,98,80,47,30.03,29.92,7,2,0,0.00
2013-8-6,75,70,64,75,69,63,98,98,98,30.05,29.96,6,2,0,0.02
2013-8-7,84,74,68,84,73,68,98,98,98,30.05,29.96,9,3,0,0.33
2013-8-8,88,79,74,88,79,73,98,98,98,29.99,29.92,8,5,0,0.00
2013-8-9,93,81,75,92,81,74,98,98,98,29.96,29.76,10,5,0,0.28
2013-8-10,89,78,69,88,78,68,98,98,98,30.00,29.85,5,2,0,0.00
2013-8-11,88,75,67,87,75,66,98,98,98,30.06,29.96,5,1,0,0.00
2013-8-12,94,79,70,93,78,70,98,98,98,29.97,29.85,6,1,0,1.04
2013-8-13,88,79,73,87,79,72,98,98,76,29.85,29.66,10,3,0,0.00
2013-8-14,78,71,61,74,64,56,98,83,50,30.00,29.69,12,6,0,0.03
2013-8-15,86,69,57,72,60,53,98,78,33,30.10,30.00,6,2,0,0.00
2013-8-16,85,69,54,79,65,53,98,90,48,30.12,30.06,4,1,0,0.00
2013-8-17,84,74,64,84,73,63,98,98,98,30.19,30.10,6,2,0,0.00
2013-8-18,76,72,65,76,71,64,98,98,98,30.14,30.05,5,2,0,0.12
2013-8-19,80,71,63,79,70,62,98,98,98,30.09,30.00,5,2,0,0.00
2013-8-20,90,76,65,89,75,65,98,98,98,30.09,30.00,4,2,0,0.00
2013-8-21,94,79,70,94,78,69,98,97,71,30.13,30.02,6,3,0,0.00
2013-8-22,90,78,70,90,77,70,98,98,98,30.03,29.85,12,3,0,0.56
2013-8-23,84,77,71,83,76,70,98,98,98,30.01,29.82,7,3,0,0.00
2013-8-24,86,73,62,86,72,62,98,98,98,30.27,30.00,6,2,0,0.00
2013-8-25,85,71,57,80,66,57,98,87,43,30.36,30.21,5,2,0,0.00
2013-8-26,88,73,60,86,71,60,98,94,68,30.23,29.92,7,4,0,0.00
2013-8-27,90,78,71,89,78,70,98,98,98,29.92,29.77,7,3,0,0.00
2013-8-28,89,76,71,88,75,70,98,98,98,29.84,29.75,5,2,0,1.57
2013-8-29,82,75,69,82,75,69,98,98,98,29.96,29.76,6,2,0,0.41
2013-8-30,86,75,66,86,74,65,98,98,98,29.98,29.85,6,2,0,0.00
2013-8-31,91,79,69,90,78,69,98,98,89,29.88,29.75,10,5,0,0.00
2013-9-1,92,81,75,91,80,74,98,98,98,29.80,29.69,7,4,0,0.00
2013-9-2,90,80,74,90,79,74,98,98,98,29.73,29.66,6,3,0,0.00
2013-9-3,89,79,74,87,78,71,98,96,57,29.75,29.66,6,4,0,0.00